TSO42K EGPH-MUHA
Flight info
| Callsign | TSO42K |
|---|---|
| Flight time | N/A |
| Altitude | 32000 |
| Route | GOSAM P600 FENIK DCT NORBO DCT MAC DCT MOLAK DCT GISTI DCT MALOT/M085F320 NATE ALLRY/N0494F340 DCT YQX/M085F340 DCT CARAC M201 DRYED/M085F360 DCT KINER DCT LSIER DCT FLUPS/M085F380 DCT MAPYL/N0491F380 G437 ZQA DCT UVA DUTAN1A |
| Aircraft | B742/H-SDFHIRWXY/L |
Departure
| Time | 2026-04-20 15:38 |
|---|---|
| Airport | Edinburgh Airport (EGPH) |
Arrival
| Time | N/A |
|---|---|
| Airport | José Martí International Airport (MUHA) |
| Time | Latitude | Longitude | Altitude | Speed | Heading |
|---|---|---|---|---|---|
| 2026-04-20 15:03 | 55.94957 | -3.36012 | 109 ft | 0 kts | 253° |
| 2026-04-20 15:25 | 55.94958 | -3.36005 | 108 ft | 2 kts | 255° |
| 2026-04-20 15:26 | 55.94961 | -3.35978 | 108 ft | 2 kts | 268° |
| 2026-04-20 15:26 | 55.94960 | -3.35951 | 108 ft | 2 kts | 279° |
| 2026-04-20 15:26 | 55.94957 | -3.35926 | 108 ft | 2 kts | 290° |
| 2026-04-20 15:26 | 55.94951 | -3.35901 | 108 ft | 2 kts | 302° |
| 2026-04-20 15:27 | 55.94942 | -3.35878 | 108 ft | 2 kts | 303° |
| 2026-04-20 15:27 | 55.94935 | -3.35856 | 108 ft | 2 kts | 301° |
| 2026-04-20 15:27 | 55.94927 | -3.35833 | 108 ft | 2 kts | 301° |
| 2026-04-20 15:27 | 55.94919 | -3.35810 | 109 ft | 2 kts | 301° |
| 2026-04-20 15:28 | 55.94915 | -3.35800 | 109 ft | 0 kts | 301° |
| 2026-04-20 15:28 | 55.94916 | -3.35800 | 109 ft | 0 kts | 301° |
| 2026-04-20 15:31 | 55.94917 | -3.35804 | 109 ft | 2 kts | 301° |
| 2026-04-20 15:32 | 55.94939 | -3.35855 | 108 ft | 7 kts | 320° |
| 2026-04-20 15:32 | 55.94999 | -3.35854 | 108 ft | 11 kts | 29° |
| 2026-04-20 15:32 | 55.95067 | -3.35813 | 108 ft | 9 kts | 354° |
| 2026-04-20 15:32 | 55.95121 | -3.35867 | 108 ft | 9 kts | 310° |
| 2026-04-20 15:33 | 55.95170 | -3.35945 | 108 ft | 9 kts | 329° |
| 2026-04-20 15:33 | 55.95200 | -3.36037 | 108 ft | 9 kts | 275° |
| 2026-04-20 15:33 | 55.95171 | -3.36173 | 107 ft | 13 kts | 240° |
| 2026-04-20 15:33 | 55.95125 | -3.36307 | 107 ft | 11 kts | 237° |
| 2026-04-20 15:34 | 55.95084 | -3.36421 | 107 ft | 11 kts | 238° |
| 2026-04-20 15:34 | 55.95038 | -3.36572 | 107 ft | 17 kts | 239° |
| 2026-04-20 15:34 | 55.94963 | -3.36786 | 107 ft | 22 kts | 238° |
| 2026-04-20 15:34 | 55.94879 | -3.37027 | 107 ft | 22 kts | 240° |
| 2026-04-20 15:35 | 55.94798 | -3.37271 | 107 ft | 22 kts | 238° |
| 2026-04-20 15:35 | 55.94717 | -3.37503 | 108 ft | 20 kts | 240° |
| 2026-04-20 15:35 | 55.94650 | -3.37712 | 108 ft | 18 kts | 240° |
| 2026-04-20 15:35 | 55.94582 | -3.37911 | 109 ft | 19 kts | 239° |
| 2026-04-20 15:36 | 55.94504 | -3.38138 | 110 ft | 22 kts | 238° |
| 2026-04-20 15:36 | 55.94420 | -3.38393 | 113 ft | 24 kts | 238° |
| 2026-04-20 15:36 | 55.94324 | -3.38661 | 116 ft | 26 kts | 237° |
| 2026-04-20 15:36 | 55.94316 | -3.38924 | 117 ft | 20 kts | 333° |
| 2026-04-20 15:37 | 55.94428 | -3.38931 | 117 ft | 15 kts | 45° |
| 2026-04-20 15:37 | 55.94527 | -3.38633 | 114 ft | 50 kts | 60° |
| 2026-04-20 15:37 | 55.94803 | -3.37819 | 108 ft | 106 kts | 59° |
| 2026-04-20 15:37 | 55.95289 | -3.36398 | 109 ft | 159 kts | 59° |
| 2026-04-20 15:38 | 55.95932 | -3.34628 | 408 ft | 177 kts | 57° |
| 2026-04-20 15:38 | 55.96611 | -3.32721 | 877 ft | 185 kts | 59° |
| 2026-04-20 15:38 | 55.97289 | -3.30781 | 1530 ft | 186 kts | 60° |
| 2026-04-20 15:38 | 55.97974 | -3.28785 | 1974 ft | 195 kts | 58° |
| 2026-04-20 15:39 | 55.98740 | -3.26761 | 2055 ft | 204 kts | 56° |
| 2026-04-20 15:39 | 55.99573 | -3.24613 | 2111 ft | 212 kts | 46° |
| 2026-04-20 15:39 | 56.00874 | -3.23405 | 2331 ft | 217 kts | 6° |
| 2026-04-20 15:39 | 56.02359 | -3.23807 | 2572 ft | 220 kts | 342° |
| 2026-04-20 15:40 | 56.03569 | -3.25425 | 2795 ft | 224 kts | 302° |
| 2026-04-20 15:40 | 56.04179 | -3.27983 | 3034 ft | 224 kts | 288° |
| 2026-04-20 15:40 | 56.04277 | -3.30705 | 3227 ft | 223 kts | 258° |
| 2026-04-20 15:40 | 56.03937 | -3.33442 | 3376 ft | 227 kts | 256° |
| 2026-04-20 15:41 | 56.03532 | -3.36238 | 3538 ft | 239 kts | 255° |
| 2026-04-20 15:41 | 56.03095 | -3.39147 | 3687 ft | 245 kts | 255° |
| 2026-04-20 15:41 | 56.02645 | -3.42113 | 3799 ft | 254 kts | 255° |
| 2026-04-20 15:41 | 56.02171 | -3.45226 | 3900 ft | 264 kts | 255° |
| 2026-04-20 15:42 | 56.01680 | -3.48437 | 3994 ft | 275 kts | 255° |
| 2026-04-20 15:42 | 56.01162 | -3.51824 | 4089 ft | 289 kts | 255° |
| 2026-04-20 15:42 | 56.00615 | -3.55379 | 4196 ft | 304 kts | 255° |
| 2026-04-20 15:42 | 56.00046 | -3.59079 | 4300 ft | 321 kts | 255° |
| 2026-04-20 15:43 | 55.99433 | -3.63056 | 4413 ft | 338 kts | 255° |
| 2026-04-20 15:43 | 55.98808 | -3.67098 | 5015 ft | 338 kts | 253° |
| 2026-04-20 15:43 | 55.98169 | -3.71074 | 5647 ft | 337 kts | 253° |
| 2026-04-20 15:43 | 55.97486 | -3.75077 | 6198 ft | 338 kts | 247° |
| 2026-04-20 15:44 | 55.96419 | -3.78830 | 6737 ft | 339 kts | 239° |
| 2026-04-20 15:44 | 55.95222 | -3.82475 | 7234 ft | 342 kts | 238° |
| 2026-04-20 15:44 | 55.93994 | -3.86122 | 7713 ft | 345 kts | 238° |
| 2026-04-20 15:44 | 55.92758 | -3.89745 | 8218 ft | 347 kts | 238° |
| 2026-04-20 15:45 | 55.91478 | -3.93456 | 8697 ft | 350 kts | 237° |
| 2026-04-20 15:45 | 55.90204 | -3.97117 | 9175 ft | 353 kts | 237° |
| 2026-04-20 15:45 | 55.88907 | -4.00805 | 9643 ft | 355 kts | 237° |